Updated20/08/2019 17:35 
 

GeoURL
free counters
Scottish Weather Network UK Weather Network Cumulus Top Weather Sites

Peebles Weather - UV Forecast

Raw Data, Raw Data Expanded

Ignore low humidity and Dew Point values. Something wrong with the sensor.
Daytime temperatures are in direct sunlight so may be higher than official air temperature values.
As with any other website, we log your IP address and browser type in the server logs for diagnostic reasons. Cookies are used to record visit time and gauges preferences. No personal information is stored or processed.

All times are in local time (GMT, or BST in summer) unless specified.

2019/08/20 16:20 EGPH 201620Z 26009KT 210V290 9999 FEW040 17/10 Q1019
19.0°C 0.0 mm 0.0 mm 0.0 mm 3.8 mph 5.4 mph 1015.2 hPa 57% X-Ray Solar Flare Level
Planetary K-Index
Planetary K-Index History
Station Warn Rain Snow Flood Wind Ltng Heat Cold Glob Moon Temp Rain 1h Rain Tue Rain 24h Wind 10m Gust Pressure Hum Proton Levels
Lost sensor contact!!!
0.402 m Waning Gibbous Comfortable F1-WSW F: A: Kp:0 SSN:0

UV Index Forecast

 

Tue Wed Thu Fri Sat Sun
UV Index UV Index UV Index UV Index UV Index UV Index
3.9 4.0 4.4 4.5 4.3 4.1
 Medium   Medium   Medium   Medium   Medium   Medium 

UV forecast courtesy of and Copyright © KNMI/ESA (http://www.temis.nl/). Used with permission.

UV Index Legend
UV Index Scale

 

XHTML 1.1 | CSS